Time;durP1;ratioP1;P1;durP2;ratioP2;P2;SDS_P1;SDS_P2;PMS_P1;PMS_P2;Temp;Humidity;BMP_temperature;BMP_pressure;BME280_temperature;BME280_humidity;BME280_pressure;Samples;Min_cycle;Max_cycle;Signal;HPM_P1;HPM_P2
2022/09/27 00:00:22;;;;;;;0.50;0.50;;;;;;;14.33;81.12;98067.78;4453944;32;35055;-87
2022/09/27 00:02:50;;;;;;;0.65;0.57;;;;;;;14.57;80.00;98066.63;4454998;32;34397;-86
2022/09/27 00:05:18;;;;;;;0.40;0.40;;;;;;;14.67;79.34;98067.09;4453818;32;34167;-86
2022/09/27 00:07:46;;;;;;;0.52;0.52;;;;;;;14.60;79.52;98056.06;4453705;32;34182;-87
2022/09/27 00:10:15;;;;;;;0.68;0.68;;;;;;;14.39;80.73;98050.03;4453849;32;35224;-87
2022/09/27 00:12:42;;;;;;;2.92;0.90;;;;;;;14.43;80.59;98058.59;4453827;32;35234;-87
2022/09/27 00:15:10;;;;;;;0.50;0.50;;;;;;;14.54;80.04;98052.84;4455143;32;34260;-83
2022/09/27 00:17:38;;;;;;;0.43;0.43;;;;;;;14.48;79.68;98050.53;4454877;32;33844;-86
2022/09/27 00:20:07;;;;;;;1.30;1.23;;;;;;;14.43;79.72;98044.66;4453694;32;35131;-88
2022/09/27 00:22:35;;;;;;;0.65;0.65;;;;;;;14.47;79.23;98047.06;4455092;32;35212;-87
2022/09/27 00:25:06;;;;;;;2.22;1.05;;;;;;;13.88;81.43;98045.44;4441092;32;32766;-86
2022/09/27 00:27:33;;;;;;;1.10;0.90;;;;;;;13.56;83.51;98043.31;4441059;32;32552;-88
2022/09/27 00:30:01;;;;;;;0.98;0.77;;;;;;;14.16;80.45;98038.00;4454801;32;35089;-87
2022/09/27 00:32:30;;;;;;;0.98;0.98;;;;;;;14.34;77.93;98038.06;4453821;32;35138;-87
2022/09/27 00:34:58;;;;;;;0.60;0.60;;;;;;;14.30;77.07;98036.53;4454855;32;34354;-87
2022/09/27 00:37:26;;;;;;;0.40;0.40;;;;;;;14.15;77.48;98033.72;4454778;32;33959;-88
2022/09/27 00:39:54;;;;;;;1.48;1.40;;;;;;;13.79;79.69;98038.84;4454748;32;35163;-88
2022/09/27 00:42:22;;;;;;;0.50;0.50;;;;;;;13.60;80.39;98026.56;4453578;32;34454;-88
2022/09/27 00:45:05;;;;;;;0.70;0.70;;;;;;;13.56;80.15;98029.41;4454655;32;33424;-81
2022/09/27 00:47:41;;;;;;;0.40;0.40;;;;;;;12.89;86.27;98023.47;4454873;32;33955;-88
2022/09/27 00:50:12;;;;;;;0.88;0.88;;;;;;;12.95;85.15;98028.44;4453414;32;36175;-85
2022/09/27 00:52:47;;;;;;;1.85;1.30;;;;;;;12.75;88.87;98028.41;4454713;32;34429;-82
2022/09/27 00:55:19;;;;;;;0.88;0.88;;;;;;;13.65;83.91;98015.91;4453561;32;34313;-88
2022/09/27 00:57:48;;;;;;;1.23;1.12;;;;;;;13.31;85.47;98022.62;4454706;32;33812;-89
2022/09/27 01:00:16;;;;;;;1.20;1.10;;;;;;;13.90;81.92;98022.66;4453381;32;35060;-86
2022/09/27 01:02:50;;;;;;;1.33;1.23;;;;;;;13.84;80.89;98024.63;4454611;32;35072;-88
2022/09/27 01:05:21;;;;;;;0.68;0.68;;;;;;;13.53;82.83;98024.28;4453413;32;34255;-87
2022/09/27 01:07:49;;;;;;;0.82;0.82;;;;;;;13.68;83.26;98027.97;4453476;32;34036;-87
2022/09/27 01:10:17;;;;;;;4.05;1.55;;;;;;;13.85;82.79;98020.22;4454496;32;35082;-87
2022/09/27 01:13:09;;;;;;;0.68;0.60;;;;;;;13.30;85.12;98018.25;4454567;32;34569;-87
2022/09/27 01:15:56;;;;;;;2.10;0.82;;;;;;;13.08;86.92;98018.34;4453389;32;33623;-87
2022/09/27 01:18:34;;;;;;;;;;;;;;;13.80;84.18;98011.75;4454741;32;34839;-87
2022/09/27 01:21:11;;;;;;;0.68;0.68;;;;;;;14.19;80.84;98001.22;4453272;32;35297;-87
2022/09/27 01:24:00;;;;;;;2.30;2.10;;;;;;;14.19;80.33;98001.22;4454326;32;35053;-87
2022/09/27 01:26:34;;;;;;;1.08;1.08;;;;;;;14.03;81.45;97993.25;4454321;32;33856;-88
2022/09/27 01:29:36;;;;;;;0.73;0.73;;;;;;;14.23;79.99;97994.91;4454653;32;34598;-84
2022/09/27 01:32:16;;;;;;;1.05;1.05;;;;;;;13.81;82.59;97993.34;4454268;32;35081;-87
2022/09/27 01:35:05;;;;;;;0.70;0.65;;;;;;;14.02;82.47;97981.06;4453297;32;34533;-88
2022/09/27 01:37:36;;;;;;;0.50;0.50;;;;;;;14.07;82.48;97982.63;4453393;32;33742;-87
2022/09/27 01:40:08;;;;;;;0.50;0.50;;;;;;;13.92;83.80;97981.56;4454196;32;34074;-88
2022/09/27 01:42:56;;;;;;;1.58;1.48;;;;;;;14.34;80.46;97983.09;4453183;32;33456;-82
2022/09/27 01:45:32;;;;;;;1.52;1.42;;;;;;;13.95;81.67;97968.34;4440497;32;34374;-87
2022/09/27 01:48:13;;;;;;;0.95;0.95;;;;;;;13.83;82.78;97965.34;4452988;32;34263;-86
2022/09/27 01:50:48;;;;;;;0.73;0.73;;;;;;;14.02;80.50;97959.28;4452896;32;34401;-85
2022/09/27 01:53:24;;;;;;;1.48;1.37;;;;;;;14.22;78.22;97956.56;4453127;32;35029;-87
2022/09/27 01:55:54;;;;;;;1.00;1.00;;;;;;;14.10;78.04;97957.16;4453782;32;35206;-87
2022/09/27 01:58:28;;;;;;;1.40;1.30;;;;;;;13.90;78.11;97949.38;4452993;32;34235;-87
2022/09/27 02:00:58;;;;;;;1.00;0.95;;;;;;;13.52;80.16;97949.34;4452946;32;34195;-86
2022/09/27 02:03:33;;;;;;;1.15;1.05;;;;;;;13.63;78.67;97947.12;4452654;32;34996;-87
2022/09/27 02:06:08;;;;;;;2.97;1.67;;;;;;;13.46;79.01;97946.13;4452961;32;32934;-86
2022/09/27 02:08:44;;;;;;;1.37;1.27;;;;;;;13.61;77.03;97943.72;4452995;32;33421;-84
2022/09/27 02:11:13;;;;;;;1.27;1.12;;;;;;;13.27;77.88;97950.41;4440289;32;34754;-87
2022/09/27 02:13:55;;;;;;;1.40;1.30;;;;;;;13.28;77.71;97955.59;4440113;32;34607;-87
2022/09/27 02:16:27;;;;;;;3.33;1.73;;;;;;;12.77;79.42;97946.47;4453823;32;34463;-87
2022/09/27 02:19:20;;;;;;;1.27;1.17;;;;;;;13.15;77.05;97951.81;4452401;32;32915;-87
2022/09/27 02:21:55;;;;;;;0.88;0.88;;;;;;;12.96;77.92;97954.38;4453568;32;34586;-82
2022/09/27 02:24:39;;;;;;;1.12;1.10;;;;;;;12.73;78.22;97950.13;4439635;32;33878;-86
2022/09/27 02:27:29;;;;;;;1.75;1.65;;;;;;;12.70;78.49;97945.88;4452398;32;34566;-87
2022/09/27 02:30:18;;;;;;;1.83;1.52;;;;;;;12.82;77.12;97943.66;4452716;32;33466;-87
2022/09/27 02:32:46;;;;;;;1.62;1.52;;;;;;;12.31;79.23;97938.75;4454465;32;33984;-87
2022/09/27 02:35:26;;;;;;;1.20;1.10;;;;;;;12.24;80.20;97929.47;4454578;32;34654;-87
2022/09/27 02:37:55;;;;;;;2.20;1.50;;;;;;;12.40;81.02;97934.94;4441872;32;34441;-87
2022/09/27 02:40:25;;;;;;;0.73;0.73;;;;;;;12.46;79.30;97931.25;4455627;32;34390;-87
2022/09/27 02:42:53;;;;;;;1.15;1.15;;;;;;;12.46;78.48;97937.31;4454652;32;34084;-87
2022/09/27 02:45:21;;;;;;;1.08;0.70;;;;;;;12.36;78.60;97927.31;4455506;32;35077;-81
2022/09/27 02:47:58;;;;;;;2.37;1.65;;;;;;;12.11;80.00;97925.69;4454366;32;34348;-88
2022/09/27 02:50:44;;;;;;;4.22;2.10;;;;;;;12.39;78.36;97934.97;4441776;32;33505;-86
2022/09/27 02:53:17;;;;;;;1.40;1.33;;;;;;;12.26;79.01;97926.81;4454623;32;33949;-87
2022/09/27 02:56:26;;;;;;;1.73;1.62;;;;;;;12.19;79.07;97922.75;4441776;32;34362;-86
2022/09/27 02:59:33;;;;;;;1.50;1.40;;;;;;;12.13;78.96;97918.63;4455696;32;35202;-87
2022/09/27 03:02:31;;;;;;;1.17;1.12;;;;;;;12.15;79.28;97916.81;4422456;32;33286;-86
2022/09/27 03:05:17;;;;;;;2.40;2.25;;;;;;;12.15;79.60;97916.81;4454591;32;34171;-87
2022/09/27 03:07:45;;;;;;;1.58;1.48;;;;;;;12.11;79.82;97915.25;4454485;32;35942;-87
2022/09/27 03:10:21;;;;;;;1.00;1.00;;;;;;;11.82;81.05;97909.34;4455574;32;34450;-82
2022/09/27 03:12:49;;;;;;;0.52;0.50;;;;;;;12.22;80.30;97918.25;4454584;32;33472;-86
2022/09/27 03:15:17;;;;;;;0.75;0.75;;;;;;;11.93;82.52;97906.38;4454305;32;34843;-87
2022/09/27 03:17:49;;;;;;;4.28;3.92;;;;;;;12.20;81.94;97909.66;4455597;32;33492;-88
2022/09/27 03:20:18;;;;;;;3.12;1.67;;;;;;;12.48;80.61;97908.53;4454365;32;34280;-84
2022/09/27 03:22:46;;;;;;;2.42;2.22;;;;;;;12.45;81.00;97909.47;4455577;32;33578;-88
2022/09/27 03:25:14;;;;;;;2.60;2.50;;;;;;;12.61;80.20;97908.84;4455534;32;34078;-87
2022/09/27 03:27:43;;;;;;;0.85;0.85;;;;;;;12.53;81.25;97906.56;4455252;32;36090;-87
2022/09/27 03:30:13;;;;;;;1.45;1.37;;;;;;;12.58;81.98;97909.81;4455540;32;34350;-83
2022/09/27 03:32:44;;;;;;;3.92;2.85;;;;;;;12.50;82.20;97904.09;4454064;32;33410;-88
2022/09/27 03:35:13;;;;;;;1.70;1.60;;;;;;;12.69;81.31;97897.16;4455084;32;32343;-87
2022/09/27 03:37:41;;;;;;;2.60;1.80;;;;;;;12.81;81.64;97900.16;4455194;32;35058;-83
2022/09/27 03:40:09;;;;;;;0.50;0.50;;;;;;;12.74;81.98;97903.94;4454069;32;34385;-87
2022/09/27 03:42:38;;;;;;;10.38;1.87;;;;;;;12.25;84.18;97905.09;4454063;32;34296;-87
2022/09/27 03:45:06;;;;;;;1.67;1.55;;;;;;;12.68;81.89;97899.84;4454995;32;34620;-87
2022/09/27 03:47:39;;;;;;;1.60;1.50;;;;;;;12.24;82.27;97892.94;4454291;32;35121;-87
2022/09/27 03:50:08;;;;;;;2.22;1.85;;;;;;;11.83;85.00;97895.41;4453840;32;34404;-86
2022/09/27 03:52:36;;;;;;;0.70;0.70;;;;;;;11.83;84.87;97890.19;4454018;32;33584;-92
2022/09/27 03:55:05;;;;;;;1.17;1.12;;;;;;;11.97;84.18;97894.91;4455263;32;33806;-90
2022/09/27 03:57:33;;;;;;;0.57;0.57;;;;;;;12.08;84.86;97899.69;4454043;32;34479;-81
2022/09/27 04:00:02;;;;;;;0.52;0.52;;;;;;;12.52;82.26;97897.03;4452805;32;34564;-80
2022/09/27 04:02:32;;;;;;;0.90;0.90;;;;;;;12.59;80.31;97895.03;4453748;32;33761;-84
2022/09/27 04:05:08;;;;;;;0.98;0.80;;;;;;;11.74;85.54;97901.00;4453749;32;33263;-80
2022/09/27 04:07:36;;;;;;;0.82;0.82;;;;;;;12.42;82.52;97893.09;4453786;32;35964;-82
2022/09/27 04:10:05;;;;;;;0.82;0.82;;;;;;;12.56;81.93;97895.97;4453532;32;35327;-80
2022/09/27 04:12:34;;;;;;;1.60;1.50;;;;;;;12.31;83.38;97896.16;4455102;32;33531;-80
2022/09/27 04:15:02;;;;;;;1.23;1.12;;;;;;;12.37;83.40;97888.09;4454946;32;34033;-84
2022/09/27 04:17:41;;;;;;;1.25;1.15;;;;;;;12.16;84.67;97892.41;4455067;32;34890;-79
2022/09/27 04:20:12;;;;;;;1.58;1.48;;;;;;;12.08;85.29;97889.25;4453767;32;33558;-79
2022/09/27 04:22:41;;;;;;;2.83;2.62;;;;;;;12.14;85.30;97894.22;4455059;32;33881;-82
2022/09/27 04:25:08;;;;;;;0.98;0.93;;;;;;;12.16;86.97;97886.34;4454569;32;33966;-82
2022/09/27 04:27:36;;;;;;;1.20;1.10;;;;;;;12.82;83.58;97880.97;4455036;32;35732;-81
2022/09/27 04:30:06;;;;;;;1.85;1.00;;;;;;;12.35;86.33;97873.38;4454535;32;34559;-81
2022/09/27 04:32:43;;;;;;;1.45;1.12;;;;;;;12.27;86.69;97868.50;4455149;32;32943;-86
2022/09/27 04:38:00;;;;;;;0.98;0.98;;;;;;;12.41;87.93;97870.53;4454877;32;35906;-85
2022/09/27 04:40:29;;;;;;;1.52;1.42;;;;;;;12.41;88.66;97865.31;4454899;32;34445;-86
2022/09/27 04:42:56;;;;;;;1.55;1.45;;;;;;;13.37;84.45;97870.69;4454714;32;33332;-87
2022/09/27 04:45:25;;;;;;;1.48;1.00;;;;;;;12.86;86.96;97864.25;4434101;32;221088;-86
2022/09/27 04:47:53;;;;;;;0.75;0.75;;;;;;;12.73;88.68;97857.88;4454755;32;34899;-82
2022/09/27 04:50:20;;;;;;;1.37;1.27;;;;;;;12.89;88.61;97867.56;4453265;32;34347;-82
2022/09/27 04:52:58;;;;;;;1.87;1.08;;;;;;;12.99;88.98;97870.62;4453465;32;33615;-81
2022/09/27 04:55:26;;;;;;;1.45;1.37;;;;;;;13.13;89.01;97863.94;4452697;32;34059;-81
2022/09/27 04:57:54;;;;;;;1.33;1.25;;;;;;;13.16;89.83;97867.25;4454614;32;35119;-82
2022/09/27 05:00:22;;;;;;;0.47;0.47;;;;;;;13.34;89.66;97854.31;4454533;32;34548;-84
2022/09/27 05:02:51;;;;;;;2.40;0.98;;;;;;;13.42;89.73;97860.88;4454616;32;33149;-82
2022/09/27 05:05:20;;;;;;;1.33;1.23;;;;;;;13.83;88.63;97852.84;4454694;32;33919;-81
2022/09/27 05:07:49;;;;;;;1.48;1.40;;;;;;;13.97;87.85;97859.19;4454169;32;35929;-84
2022/09/27 05:10:23;;;;;;;1.37;1.33;;;;;;;13.88;89.59;97850.03;4454575;32;35045;-81
2022/09/27 05:12:52;;;;;;;1.90;1.33;;;;;;;13.84;88.56;97849.31;4454173;32;33333;-81
2022/09/27 05:15:20;;;;;;;3.50;3.20;;;;;;;13.73;90.13;97851.63;4454227;32;34607;-82
2022/09/27 05:17:52;;;;;;;0.50;0.50;;;;;;;13.79;90.33;97848.69;4454502;32;35037;-81
2022/09/27 05:20:25;;;;;;;0.88;0.82;;;;;;;14.10;88.08;97852.47;4454423;32;35086;-88
2022/09/27 05:22:53;;;;;;;1.90;1.60;;;;;;;13.91;89.87;97846.44;4453317;32;33423;-85
2022/09/27 05:25:20;;;;;;;1.15;1.15;;;;;;;13.81;91.15;97841.63;4454025;32;33894;-88
2022/09/27 05:27:49;;;;;;;1.75;1.65;;;;;;;14.07;89.63;97831.66;4454193;32;35934;-88
2022/09/27 05:30:18;;;;;;;3.20;3.00;;;;;;;14.19;88.72;97828.44;4454292;32;35629;-87
2022/09/27 05:32:49;;;;;;;0.82;0.82;;;;;;;14.59;87.46;97828.22;4453296;32;32730;-88
2022/09/27 05:35:21;;;;;;;3.12;2.17;;;;;;;14.45;87.41;97825.44;4454184;32;33627;-88
2022/09/27 05:37:54;;;;;;;1.62;1.45;;;;;;;14.15;89.46;97819.06;4452901;32;34666;-87
2022/09/27 05:40:24;;;;;;;1.75;1.65;;;;;;;14.47;87.56;97819.19;4453148;32;34565;-84
2022/09/27 05:43:09;;;;;;;3.00;2.30;;;;;;;14.09;90.20;97808.88;4453211;32;34444;-88
2022/09/27 05:45:37;;;;;;;2.62;2.42;;;;;;;14.53;87.21;97818.03;4454225;32;33953;-88
2022/09/27 05:48:05;;;;;;;1.33;1.23;;;;;;;14.56;87.88;97823.97;4452794;32;34999;-82
2022/09/27 05:50:34;;;;;;;1.05;1.00;;;;;;;14.82;85.31;97829.63;4451943;32;33329;-88
2022/09/27 05:53:02;;;;;;;1.80;1.70;;;;;;;14.32;86.79;97833.91;4453992;32;34228;-91
2022/09/27 05:55:30;;;;;;;1.92;0.95;;;;;;;14.66;86.46;97826.13;4453844;32;33801;-89
2022/09/27 05:57:58;;;;;;;2.37;2.15;;;;;;;14.26;88.99;97812.41;4453648;32;35076;-81
2022/09/27 06:00:27;;;;;;;1.42;1.37;;;;;;;14.44;88.33;97819.34;4453865;32;35323;-83
2022/09/27 06:02:57;;;;;;;5.87;2.97;;;;;;;14.51;89.39;97822.50;4452618;32;33431;-82
2022/09/27 06:05:30;;;;;;;4.20;3.78;;;;;;;14.92;87.11;97825.62;4452664;32;34063;-85
2022/09/27 06:08:01;;;;;;;2.62;2.42;;;;;;;14.78;86.96;97822.88;4453540;32;35107;-84
2022/09/27 06:10:30;;;;;;;3.55;1.52;;;;;;;14.67;87.98;97819.97;4455866;32;34386;-80
2022/09/27 06:13:01;;;;;;;1.95;1.25;;;;;;;14.74;88.60;97823.97;4454895;32;33608;-79
2022/09/27 06:15:32;;;;;;;1.05;1.05;;;;;;;14.59;89.03;97817.75;4454745;32;33953;-79
2022/09/27 06:18:13;;;;;;;3.22;2.95;;;;;;;14.78;87.58;97828.13;4454570;32;35211;-79
2022/09/27 06:20:41;;;;;;;4.28;3.72;;;;;;;14.85;87.87;97829.50;4455532;32;34361;-82
2022/09/27 06:23:11;;;;;;;2.12;1.98;;;;;;;14.48;89.98;97826.13;4455874;32;33268;-82
2022/09/27 06:25:39;;;;;;;1.87;1.77;;;;;;;14.78;89.56;97833.34;4455596;32;33892;-80
2022/09/27 06:28:09;;;;;;;2.97;2.45;;;;;;;14.70;90.07;97830.28;4454617;32;34759;-83
2022/09/27 06:30:39;;;;;;;6.28;2.55;;;;;;;14.83;90.41;97828.72;4454148;32;35282;-80
2022/09/27 06:33:16;;;;;;;3.85;3.25;;;;;;;15.08;90.32;97827.44;4455532;32;35555;-79
2022/09/27 06:35:46;;;;;;;3.33;3.05;;;;;;;14.89;89.83;97822.31;4454620;32;34713;-79
2022/09/27 06:38:15;;;;;;;3.95;1.75;;;;;;;15.13;88.55;97828.03;4455257;32;35895;-80
2022/09/27 06:40:44;;;;;;;6.28;4.55;;;;;;;15.26;88.80;97818.56;4455455;32;34555;-80
2022/09/27 06:43:18;;;;;;;1.25;1.23;;;;;;;15.07;90.09;97813.50;4441839;32;33334;-79
2022/09/27 06:45:48;;;;;;;3.58;2.85;;;;;;;15.50;87.31;97803.25;4455740;32;33736;-80
2022/09/27 06:48:19;;;;;;;2.00;1.75;;;;;;;15.59;87.70;97803.69;4455629;32;35880;-79
2022/09/27 06:50:48;;;;;;;1.48;1.37;;;;;;;15.53;89.13;97810.12;4454344;32;34421;-80
2022/09/27 06:53:18;;;;;;;2.50;2.22;;;;;;;15.69;89.42;97815.38;4441952;32;33110;-79
2022/09/27 06:55:46;;;;;;;1.85;1.73;;;;;;;15.78;87.51;97822.75;4455418;32;34699;-84
2022/09/27 07:01:09;;;;;;;1.45;1.35;;;;;;;15.94;86.22;97837.66;4455523;32;34470;-81
2022/09/27 07:03:41;;;;;;;1.40;1.27;;;;;;;15.42;88.22;97836.09;4454332;32;31750;-79
2022/09/27 07:06:19;;;;;;;1.73;1.62;;;;;;;15.38;87.36;97837.19;4454316;32;33876;-79
2022/09/27 07:08:52;;;;;;;1.02;1.00;;;;;;;15.65;85.85;97835.69;4454158;32;34973;-79
2022/09/27 07:11:22;;;;;;;1.60;1.50;;;;;;;15.68;85.62;97830.25;4454314;32;35304;-80
2022/09/27 07:13:51;;;;;;;1.40;1.30;;;;;;;15.49;87.46;97829.56;4455551;32;32612;-78
2022/09/27 07:16:19;;;;;;;1.02;1.02;;;;;;;15.59;87.44;97822.91;4455064;32;34722;-80
2022/09/27 07:18:51;;;;;;;1.58;1.27;;;;;;;15.61;87.85;97821.03;4453842;32;35155;-88
2022/09/27 07:21:21;;;;;;;2.10;1.50;;;;;;;15.61;86.16;97821.03;4454209;32;34952;-85
2022/09/27 07:23:49;;;;;;;4.03;3.05;;;;;;;15.78;86.69;97835.03;4455257;32;33156;-86
2022/09/27 07:26:17;;;;;;;2.08;1.98;;;;;;;15.68;88.52;97819.75;4454127;32;33678;-84
2022/09/27 07:28:45;;;;;;;2.22;1.87;;;;;;;16.04;86.23;97820.41;4453943;32;34674;-83
2022/09/27 07:31:14;;;;;;;3.37;2.60;;;;;;;16.25;86.18;97813.06;4455173;32;34453;-84
2022/09/27 07:33:42;;;;;;;1.42;1.35;;;;;;;16.25;85.61;97824.44;4455004;32;33649;-83
2022/09/27 07:36:11;;;;;;;1.52;1.42;;;;;;;16.37;84.87;97820.22;4453868;32;33205;-85
2022/09/27 07:38:40;;;;;;;2.20;2.10;;;;;;;16.23;84.36;97820.19;4453913;32;35789;-85
2022/09/27 07:41:12;;;;;;;2.75;2.15;;;;;;;16.49;83.26;97813.41;4451778;32;34504;-83
2022/09/27 07:43:41;;;;;;;2.10;1.95;;;;;;;16.52;83.10;97810.62;4455252;32;33709;-83
2022/09/27 07:46:10;;;;;;;1.35;1.30;;;;;;;16.47;83.89;97807.41;4441051;32;32910;-85
2022/09/27 07:48:37;;;;;;;3.30;1.73;;;;;;;16.37;82.81;97819.41;4453886;32;35799;-82
2022/09/27 07:51:09;;;;;;;0.82;0.82;;;;;;;16.63;81.75;97828.37;4441275;32;33711;-81
2022/09/27 07:53:39;;;;;;;1.98;1.80;;;;;;;16.46;81.80;97824.94;4455138;32;34150;-84
2022/09/27 07:56:08;;;;;;;2.42;2.25;;;;;;;16.74;80.35;97818.03;4454987;32;34652;-85
2022/09/27 07:58:37;;;;;;;1.90;1.73;;;;;;;16.50;82.59;97820.38;4454741;32;35140;-86
2022/09/27 08:01:06;;;;;;;2.33;1.98;;;;;;;16.56;81.62;97811.28;4455144;32;34443;-86
2022/09/27 08:03:35;;;;;;;2.78;2.53;;;;;;;16.98;79.40;97809.66;4453975;32;33109;-86
2022/09/27 08:06:03;;;;;;;1.33;1.23;;;;;;;16.37;81.42;97801.00;4453696;32;34422;-86
2022/09/27 08:08:31;;;;;;;2.80;2.47;;;;;;;16.12;84.25;97808.53;4453683;32;35203;-87
2022/09/27 08:11:01;;;;;;;1.45;1.35;;;;;;;16.29;81.80;97819.84;4454957;32;34483;-85
2022/09/27 08:13:28;;;;;;;1.77;1.67;;;;;;;15.91;84.64;97820.28;4455173;32;33366;-87
2022/09/27 08:16:00;;;;;;;3.12;2.85;;;;;;;15.77;85.33;97828.09;4454987;32;33912;-87
2022/09/27 08:18:32;;;;;;;2.35;1.90;;;;;;;16.01;83.09;97825.84;4455039;32;36056;-87
2022/09/27 08:21:00;;;;;;;1.77;1.62;;;;;;;16.15;82.77;97832.91;4453767;32;35093;-88
2022/09/27 08:23:29;;;;;;;1.25;1.17;;;;;;;15.93;82.94;97828.91;4455099;32;33448;-83
2022/09/27 08:26:03;;;;;;;1.75;0.93;;;;;;;15.64;85.41;97820.87;4454058;32;34705;-90
2022/09/27 08:28:31;;;;;;;1.73;1.62;;;;;;;15.96;85.06;97815.59;4454833;32;35013;-82
2022/09/27 08:31:00;;;;;;;2.12;1.50;;;;;;;16.36;83.36;97810.69;4453768;32;35107;-92
2022/09/27 08:33:28;;;;;;;0.93;0.93;;;;;;;16.07;84.26;97815.81;4453464;32;33453;-89
2022/09/27 08:36:02;;;;;;;1.67;1.58;;;;;;;16.58;82.25;97804.16;4454515;32;33798;-80
2022/09/27 08:38:30;;;;;;;2.10;1.92;;;;;;;16.66;80.47;97815.06;4451341;32;35146;-82
2022/09/27 08:41:08;;;;;;;2.50;2.30;;;;;;;16.54;80.99;97821.03;4454838;32;34325;-83
2022/09/27 08:44:27;;;;;;;2.45;1.50;;;;;;;16.20;81.59;97818.63;4453540;32;34219;-80
2022/09/27 08:47:04;;;;;;;3.40;1.05;;;;;;;15.71;84.71;97814.34;4420911;32;34195;-84
2022/09/27 08:49:37;;;;;;;1.15;1.15;;;;;;;16.12;83.88;97816.41;4454471;32;35212;-87
2022/09/27 08:52:11;;;;;;;2.78;2.58;;;;;;;16.14;82.69;97820.75;4455050;32;34339;-80
2022/09/27 08:54:44;;;;;;;1.67;1.58;;;;;;;15.64;84.39;97807.75;4452961;32;33532;-87
2022/09/27 08:57:16;;;;;;;3.17;2.97;;;;;;;15.92;85.05;97803.59;4453004;32;33586;-88
2022/09/27 08:59:54;;;;;;;2.47;2.33;;;;;;;15.92;83.97;97806.22;4454633;32;34922;-89
2022/09/27 09:02:24;;;;;;;2.28;2.08;;;;;;;16.14;82.54;97811.06;4453238;32;35100;-82
2022/09/27 09:04:56;;;;;;;1.15;1.05;;;;;;;16.03;84.34;97802.97;4454450;32;33664;-83
2022/09/27 09:08:08;;;;;;;2.35;2.25;;;;;;;16.27;82.27;97801.56;4454405;32;33934;-84
2022/09/27 09:13:55;;;;;;;1.83;1.73;;;;;;;16.02;82.03;97796.88;4454619;32;34369;-86
2022/09/27 09:17:08;;;;;;;4.22;3.22;;;;;;;15.73;83.96;97780.97;4454621;32;33328;-86
2022/09/27 09:19:50;;;;;;;1.87;1.77;;;;;;;15.81;84.52;97783.22;4441323;32;33731;-83
2022/09/27 09:22:54;;;;;;;4.22;2.80;;;;;;;15.83;87.05;97776.09;4453193;32;34715;-83
2022/09/27 09:25:27;;;;;;;1.73;1.62;;;;;;;16.20;86.43;97780.97;4454099;32;34481;-84
2022/09/27 09:28:26;;;;;;;2.58;2.30;;;;;;;16.16;85.79;97777.69;4454456;32;34226;-86
2022/09/27 09:31:09;;;;;;;1.58;1.48;;;;;;;16.67;83.68;97774.69;4452960;32;33819;-84
2022/09/27 09:33:45;;;;;;;3.05;2.75;;;;;;;16.32;82.96;97782.87;4453965;32;35180;-84
2022/09/27 09:36:16;;;;;;;2.65;2.47;;;;;;;16.15;85.03;97775.16;4452887;32;34176;-85
2022/09/27 09:39:02;;;;;;;0.60;0.60;;;;;;;16.11;84.61;97771.84;4453987;32;33326;-85
2022/09/27 09:41:35;;;;;;;1.90;1.77;;;;;;;16.30;83.69;97769.84;4454184;32;33498;-83
2022/09/27 09:44:11;;;;;;;3.28;1.87;;;;;;;16.24;85.39;97769.38;4458087;32;35181;-83
2022/09/27 09:46:41;;;;;;;1.15;1.15;;;;;;;16.58;85.08;97769.97;4457932;32;34395;-82
2022/09/27 09:49:16;;;;;;;0.65;0.65;;;;;;;16.40;84.40;97771.94;4457624;32;32978;-83
2022/09/27 09:51:55;;;;;;;1.17;1.15;;;;;;;16.51;83.80;97766.03;4459381;32;33892;-82
2022/09/27 09:54:36;;;;;;;1.33;1.23;;;;;;;16.07;87.28;97768.56;4445595;32;35852;-85
2022/09/27 09:57:15;;;;;;;2.05;1.95;;;;;;;16.28;86.67;97776.97;4458171;32;34397;-86
2022/09/27 10:00:12;;;;;;;0.95;0.95;;;;;;;16.60;84.63;97761.06;4457964;32;34331;-88
2022/09/27 10:02:44;;;;;;;1.62;1.52;;;;;;;16.81;81.67;97764.16;4457734;32;34706;-88
2022/09/27 10:05:16;;;;;;;1.45;1.35;;;;;;;16.03;85.19;97758.34;4457806;32;34747;-88
2022/09/27 10:07:46;;;;;;;1.40;1.30;;;;;;;16.17;84.55;97760.16;4459258;32;35093;-87
2022/09/27 10:10:16;;;;;;;1.60;1.50;;;;;;;16.30;84.88;97759.31;4458909;32;33429;-89
2022/09/27 10:12:46;;;;;;;1.30;1.25;;;;;;;16.07;85.99;97758.06;4458095;32;33512;-86
2022/09/27 10:15:23;;;;;;;1.80;1.67;;;;;;;15.84;86.38;97746.28;4457951;32;35080;-82
2022/09/27 10:17:53;;;;;;;1.05;1.05;;;;;;;16.27;86.77;97743.78;4458786;32;34419;-82
2022/09/27 10:20:50;;;;;;;1.45;1.35;;;;;;;16.67;83.91;97743.97;4455190;32;33407;-76
2022/09/27 10:23:32;;;;;;;1.55;0.95;;;;;;;16.36;85.31;97742.38;4446182;32;33446;-77
2022/09/27 10:26:03;;;;;;;2.40;1.90;;;;;;;16.58;86.10;97736.66;4457601;32;34993;-78
2022/09/27 10:28:36;;;;;;;4.32;3.17;;;;;;;16.92;82.74;97741.66;4457556;32;34451;-78
2022/09/27 10:31:17;;;;;;;2.37;2.08;;;;;;;16.31;84.52;97739.19;4457493;32;33336;-77
2022/09/27 10:34:00;;;;;;;0.80;0.80;;;;;;;16.59;85.25;97732.25;4457585;32;33950;-81
2022/09/27 10:36:34;;;;;;;2.28;2.08;;;;;;;16.90;84.46;97719.88;4444584;32;34426;-76
2022/09/27 10:39:04;;;;;;;2.60;2.42;;;;;;;16.90;84.83;97720.72;4458281;32;34995;-76
2022/09/27 10:41:35;;;;;;;1.73;1.62;;;;;;;16.65;86.20;97731.88;4456966;32;33468;-78
2022/09/27 10:44:16;;;;;;;1.00;1.00;;;;;;;16.91;86.20;97721.59;4458645;32;34723;-81
2022/09/27 10:46:50;;;;;;;2.62;2.42;;;;;;;16.93;85.08;97719.69;4458265;32;36124;-81
2022/09/27 10:49:25;;;;;;;4.15;2.35;;;;;;;17.38;83.15;97730.84;4456935;32;35283;-80
2022/09/27 10:51:58;;;;;;;1.58;1.48;;;;;;;17.22;82.83;97728.34;4457408;32;32783;-76
2022/09/27 10:54:28;;;;;;;2.72;2.53;;;;;;;17.59;81.63;97724.22;4454255;32;33433;-81
2022/09/27 10:57:05;;;;;;;2.05;1.33;;;;;;;16.99;84.72;97714.03;4454439;32;34272;-85
2022/09/27 10:59:35;;;;;;;0.73;0.73;;;;;;;17.09;83.59;97707.25;4455360;32;34511;-85
2022/09/27 11:02:05;;;;;;;3.12;1.70;;;;;;;17.11;84.37;97708.00;4441628;32;32736;-83
2022/09/27 11:04:36;;;;;;;1.30;1.20;;;;;;;17.20;83.89;97706.56;4454410;32;34695;-84
2022/09/27 11:07:18;;;;;;;1.87;1.70;;;;;;;17.56;82.42;97698.09;4455636;32;34926;-84
2022/09/27 11:09:53;;;;;;;3.60;3.30;;;;;;;17.68;81.31;97698.22;4455658;32;34345;-84
2022/09/27 11:12:24;;;;;;;1.55;1.45;;;;;;;17.46;83.94;97697.00;4455521;32;33318;-83
2022/09/27 11:15:15;;;;;;;0.82;0.82;;;;;;;17.82;81.74;97690.25;4454410;32;34704;-83
2022/09/27 11:18:06;;;;;;;2.95;2.40;;;;;;;18.20;80.63;97694.75;4454452;32;35024;-84
2022/09/27 11:20:46;;;;;;;3.50;3.20;;;;;;;17.84;79.89;97690.97;4454199;32;34539;-84
2022/09/27 11:23:18;;;;;;;0.50;0.50;;;;;;;17.97;79.58;97681.34;4454473;32;33051;-84
2022/09/27 11:26:20;;;;;;;3.08;2.12;;;;;;;17.93;80.04;97679.00;4454510;32;33872;-85
2022/09/27 11:29:01;;;;;;;3.08;1.87;;;;;;;17.60;79.97;97667.97;4455359;32;34823;-83
2022/09/27 11:32:01;;;;;;;1.50;1.40;;;;;;;18.12;78.68;97668.91;4455517;32;34539;-84
2022/09/27 11:34:53;;;;;;;1.45;1.35;;;;;;;18.02;79.58;97667.03;4424439;32;34112;-84
2022/09/27 11:37:41;;;;;;;1.00;1.00;;;;;;;18.14;79.76;97667.03;4454100;32;33460;-81
2022/09/27 11:40:33;;;;;;;2.97;1.33;;;;;;;18.76;76.83;97668.87;4453993;32;35080;-84
2022/09/27 11:43:12;;;;;;;0.70;0.70;;;;;;;18.66;75.74;97665.19;4455408;32;34339;-84
2022/09/27 11:46:20;;;;;;;2.47;1.70;;;;;;;18.55;76.86;97649.31;4455350;32;33583;-81
2022/09/27 11:49:27;;;;;;;1.75;1.65;;;;;;;18.47;76.00;97654.25;4450848;32;33946;-85
2022/09/27 11:52:44;;;;;;;0.52;0.52;;;;;;;18.59;75.46;97650.75;4441270;32;35063;-85
2022/09/27 11:55:35;;;;;;;3.15;1.52;;;;;;;18.86;76.96;97647.97;4391879;32;34790;-85
2022/09/27 11:58:22;;;;;;;1.75;1.55;;;;;;;18.55;76.12;97644.03;4363405;32;32853;-85
2022/09/27 12:01:19;;;;;;;1.80;1.70;;;;;;;18.51;76.17;97643.41;4445348;32;33868;-85
2022/09/27 12:04:09;;;;;;;3.72;2.33;;;;;;;18.44;76.54;97638.66;4454236;32;34971;-80
2022/09/27 12:07:00;;;;;;;0.77;0.77;;;;;;;18.30;77.49;97631.72;4454110;32;35161;-85
2022/09/27 12:09:38;;;;;;;0.73;0.73;;;;;;;18.42;77.59;97625.59;4455047;32;33328;-83
2022/09/27 12:12:12;;;;;;;5.25;0.77;;;;;;;18.62;77.19;97629.47;4453824;32;33937;-84
2022/09/27 12:15:02;;;;;;;1.23;1.12;;;;;;;18.52;76.95;97621.34;4453986;32;35020;-83
2022/09/27 12:17:46;;;;;;;1.30;1.23;;;;;;;18.06;78.66;97631.63;4453947;32;33999;-78